createdAt,value
2022-12-03T00:00:53.060Z,15.60
2022-12-03T00:03:21.416Z,17.50
2022-12-03T00:05:49.766Z,16.20
2022-12-03T00:08:18.405Z,16.97
2022-12-03T00:10:46.674Z,17.47
2022-12-03T00:13:14.915Z,17.57
2022-12-03T00:15:44.587Z,16.47
2022-12-03T00:18:12.871Z,17.43
2022-12-03T00:20:41.202Z,16.97
2022-12-03T00:23:09.468Z,17.00
2022-12-03T00:25:37.730Z,16.00
2022-12-03T00:28:06.207Z,16.43
2022-12-03T00:30:34.506Z,16.70
2022-12-03T00:33:04.165Z,17.20
2022-12-03T00:35:32.360Z,17.60
2022-12-03T00:38:00.600Z,17.07
2022-12-03T00:40:28.823Z,17.90
2022-12-03T00:42:57.054Z,16.87
2022-12-03T00:45:25.319Z,17.80
2022-12-03T00:47:53.566Z,17.70
2022-12-03T00:50:23.242Z,17.90
2022-12-03T00:52:51.575Z,17.77
2022-12-03T00:55:19.843Z,18.47
2022-12-03T00:57:48.068Z,18.30
2022-12-03T01:00:16.997Z,18.10
2022-12-03T01:02:45.247Z,18.03
2022-12-03T01:05:13.586Z,16.93
2022-12-03T01:07:43.308Z,18.53
2022-12-03T01:10:12.068Z,18.03
2022-12-03T01:12:40.374Z,19.00
2022-12-03T01:15:09.276Z,19.23
2022-12-03T01:17:37.522Z,18.50
2022-12-03T01:20:06.867Z,17.77
2022-12-03T01:22:36.424Z,18.03
2022-12-03T01:25:06.295Z,16.93
2022-12-03T01:27:34.547Z,17.97
2022-12-03T01:30:02.836Z,17.73
2022-12-03T01:32:30.075Z,17.57
2022-12-03T01:34:58.415Z,18.60
2022-12-03T01:37:27.265Z,18.33
2022-12-03T01:39:55.640Z,17.90
2022-12-03T01:42:26.138Z,17.47
2022-12-03T01:44:55.282Z,17.70
2022-12-03T01:47:26.021Z,18.07
2022-12-03T01:49:55.634Z,17.83
2022-12-03T01:52:25.959Z,17.17
2022-12-03T01:54:55.944Z,17.73
2022-12-03T01:57:27.934Z,16.47
2022-12-03T01:59:57.567Z,17.63
2022-12-03T02:02:26.658Z,17.57
2022-12-03T02:04:55.704Z,16.40
2022-12-03T02:07:25.797Z,17.00
2022-12-03T02:09:54.134Z,17.47
2022-12-03T02:12:23.939Z,16.70
2022-12-03T02:14:54.251Z,16.93
2022-12-03T02:17:22.852Z,16.93
2022-12-03T02:19:51.171Z,16.97
2022-12-03T02:22:28.918Z,16.40
2022-12-03T02:24:59.587Z,16.90
2022-12-03T02:27:30.081Z,16.83
2022-12-03T02:29:58.439Z,16.07
2022-12-03T02:32:26.665Z,15.80
2022-12-03T02:34:55.272Z,16.97
2022-12-03T02:37:24.813Z,17.17
2022-12-03T02:39:54.235Z,16.57
2022-12-03T02:42:38.507Z,15.90
2022-12-03T02:45:10.162Z,16.00
2022-12-03T02:47:47.240Z,15.57
2022-12-03T02:50:17.478Z,16.70
2022-12-03T02:52:47.018Z,15.03
2022-12-03T02:55:15.816Z,17.03
2022-12-03T02:57:44.714Z,16.50
2022-12-03T03:00:15.274Z,15.50
2022-12-03T03:02:43.690Z,16.60
2022-12-03T03:05:12.761Z,16.33
2022-12-03T03:07:41.422Z,16.93
2022-12-03T03:10:11.143Z,15.87
2022-12-03T03:12:39.635Z,16.50
2022-12-03T03:15:08.988Z,17.90
2022-12-03T03:17:38.936Z,17.90
2022-12-03T03:20:09.044Z,16.77
2022-12-03T03:22:38.526Z,16.73
2022-12-03T03:25:08.074Z,17.00
2022-12-03T03:27:36.872Z,17.07
2022-12-03T03:30:05.780Z,18.20
2022-12-03T03:32:34.254Z,17.80
2022-12-03T03:35:04.143Z,18.50
2022-12-03T03:37:32.744Z,17.93
2022-12-03T03:40:00.988Z,18.60
2022-12-03T03:42:29.267Z,18.97
2022-12-03T03:44:57.630Z,18.73
2022-12-03T03:47:25.873Z,19.50
2022-12-03T03:49:54.275Z,20.80
2022-12-03T03:52:24.283Z,19.30
2022-12-03T03:54:52.903Z,19.10
2022-12-03T03:57:21.430Z,19.27
2022-12-03T03:59:49.681Z,19.03
2022-12-03T04:02:19.866Z,18.27
2022-12-03T04:04:48.485Z,19.03
2022-12-03T04:07:17.199Z,19.43
2022-12-03T04:09:46.819Z,19.60
2022-12-03T04:12:32.626Z,20.73
2022-12-03T04:15:00.898Z,20.30
2022-12-03T04:17:29.078Z,20.10
2022-12-03T04:19:57.310Z,19.97
2022-12-03T04:22:42.625Z,20.73
2022-12-03T04:25:35.347Z,21.13
2022-12-03T04:28:21.311Z,21.30
2022-12-03T04:30:49.570Z,21.63
2022-12-03T04:33:40.646Z,21.67
2022-12-03T04:36:09.011Z,21.73
2022-12-03T04:38:37.282Z,21.60
2022-12-03T04:41:06.939Z,21.80
2022-12-03T04:43:56.072Z,22.90
2022-12-03T04:46:24.395Z,22.33
2022-12-03T04:48:52.614Z,22.20
2022-12-03T04:51:20.817Z,22.57
2022-12-03T04:53:49.044Z,22.63
2022-12-03T04:56:18.608Z,21.67
2022-12-03T04:58:46.797Z,22.97
2022-12-03T05:01:15.114Z,22.23
2022-12-03T05:03:43.391Z,21.80
2022-12-03T05:06:11.608Z,21.43
2022-12-03T05:08:39.843Z,23.10
2022-12-03T05:11:08.402Z,23.67
2022-12-03T05:13:38.247Z,23.13
2022-12-03T05:16:06.571Z,22.83
2022-12-03T05:18:34.820Z,21.87
2022-12-03T05:21:03.102Z,22.70
2022-12-03T05:23:31.384Z,21.73
2022-12-03T05:25:59.628Z,23.33
2022-12-03T05:28:27.904Z,23.50
2022-12-03T05:30:57.505Z,21.60
2022-12-03T05:33:25.847Z,22.70
2022-12-03T05:35:54.090Z,23.07
2022-12-03T05:38:22.322Z,22.73
2022-12-03T05:40:50.561Z,23.13
2022-12-03T05:43:17.835Z,21.90
2022-12-03T05:45:46.263Z,22.73
2022-12-03T05:48:16.760Z,22.13
2022-12-03T05:50:45.751Z,22.53
2022-12-03T05:53:14.476Z,23.53
2022-12-03T05:55:42.808Z,23.63
2022-12-03T05:58:11.703Z,24.03
2022-12-03T06:00:42.862Z,23.33
2022-12-03T06:03:11.947Z,21.77
2022-12-03T06:05:41.639Z,23.17
2022-12-03T06:08:09.946Z,22.47
2022-12-03T06:10:38.231Z,22.70
2022-12-03T06:13:06.518Z,22.63
2022-12-03T06:15:38.910Z,22.40
2022-12-03T06:18:11.710Z,21.80
2022-12-03T06:20:40.229Z,21.67
2022-12-03T06:23:09.820Z,22.80
2022-12-03T06:25:38.071Z,22.33
2022-12-03T06:28:07.339Z,23.07
2022-12-03T06:30:35.895Z,22.80
2022-12-03T06:33:04.142Z,20.50
2022-12-03T06:35:32.419Z,21.57
2022-12-03T06:38:00.678Z,20.43
2022-12-03T06:40:30.375Z,21.93
2022-12-03T06:42:58.699Z,22.33
2022-12-03T06:45:26.962Z,22.03
2022-12-03T06:47:55.275Z,22.43
2022-12-03T06:50:23.514Z,22.37
2022-12-03T06:52:51.811Z,22.73
2022-12-03T06:55:20.129Z,21.37
2022-12-03T06:57:49.735Z,21.23
2022-12-03T07:00:18.359Z,22.17
2022-12-03T07:02:46.738Z,22.80
2022-12-03T07:05:15.128Z,21.03
2022-12-03T07:07:43.430Z,21.37
2022-12-03T07:10:11.980Z,23.33
2022-12-03T07:12:40.294Z,22.20
2022-12-03T07:15:10.617Z,21.10
2022-12-03T07:17:38.959Z,20.07
2022-12-03T07:20:07.942Z,20.67
2022-12-03T07:22:36.332Z,19.93
2022-12-03T07:25:04.768Z,19.70
2022-12-03T07:27:33.031Z,19.67
2022-12-03T07:30:01.324Z,20.10
2022-12-03T07:32:31.000Z,19.20
2022-12-03T07:34:59.244Z,20.70
2022-12-03T07:37:27.486Z,20.50
2022-12-03T07:39:55.788Z,20.17
2022-12-03T07:42:24.246Z,21.43
2022-12-03T07:44:53.375Z,23.07
2022-12-03T07:47:21.753Z,21.70
2022-12-03T07:49:51.407Z,22.90
2022-12-03T07:52:19.666Z,22.20
2022-12-03T07:54:47.976Z,22.27
2022-12-03T07:57:16.192Z,22.13
2022-12-03T07:59:44.431Z,21.63
2022-12-03T08:02:16.847Z,24.30
2022-12-03T08:04:51.204Z,23.73
2022-12-03T08:07:19.613Z,23.90
2022-12-03T08:09:48.341Z,25.43
2022-12-03T08:12:17.409Z,25.73
2022-12-03T08:14:45.806Z,25.67
2022-12-03T08:17:14.556Z,27.30
2022-12-03T08:19:43.803Z,25.60
2022-12-03T08:22:15.001Z,24.40
2022-12-03T08:24:44.287Z,25.20
2022-12-03T08:27:17.464Z,25.43
2022-12-03T08:29:45.810Z,24.30
2022-12-03T08:32:14.514Z,25.40
2022-12-03T08:34:43.460Z,25.27
2022-12-03T08:37:15.935Z,25.73
2022-12-03T08:39:53.706Z,25.40
2022-12-03T08:42:42.643Z,25.83
2022-12-03T08:45:35.588Z,25.27
2022-12-03T08:48:09.110Z,24.60
2022-12-03T08:50:44.038Z,24.80
2022-12-03T08:53:23.565Z,23.77
2022-12-03T08:55:54.942Z,27.10
2022-12-03T08:58:24.026Z,23.03
2022-12-03T09:00:54.191Z,25.23
2022-12-03T09:03:23.300Z,25.40
2022-12-03T09:05:51.629Z,23.63
2022-12-03T09:08:20.240Z,24.93
2022-12-03T09:10:49.202Z,25.17
2022-12-03T09:13:18.912Z,23.57
2022-12-03T09:15:47.841Z,24.20
2022-12-03T09:18:18.371Z,23.97
2022-12-03T09:20:48.504Z,23.73
2022-12-03T09:23:16.919Z,24.17
2022-12-03T09:25:46.716Z,23.00
2022-12-03T09:28:16.196Z,23.13
2022-12-03T09:30:47.637Z,24.27
2022-12-03T09:33:16.109Z,22.27
2022-12-03T09:35:44.460Z,21.90
2022-12-03T09:38:12.962Z,21.97
2022-12-03T09:40:41.250Z,22.97
2022-12-03T09:43:09.715Z,22.90
2022-12-03T09:45:38.091Z,21.40
2022-12-03T09:48:08.642Z,21.60
2022-12-03T09:50:38.878Z,20.67
2022-12-03T09:53:07.228Z,19.73
2022-12-03T09:55:36.004Z,21.53
2022-12-03T09:58:04.554Z,20.83
2022-12-03T10:00:33.461Z,18.80
2022-12-03T10:03:04.908Z,19.33
2022-12-03T10:05:35.443Z,19.90
2022-12-03T10:08:06.032Z,19.97
2022-12-03T10:10:34.946Z,19.60
2022-12-03T10:13:03.804Z,19.80
2022-12-03T10:15:32.253Z,18.60
2022-12-03T10:18:02.593Z,18.90
2022-12-03T10:20:30.871Z,18.23
2022-12-03T10:23:00.740Z,18.30
2022-12-03T10:25:29.411Z,18.70
2022-12-03T10:27:58.889Z,18.63
2022-12-03T10:30:28.551Z,17.47
2022-12-03T10:32:58.330Z,18.63
2022-12-03T10:35:28.111Z,18.03
2022-12-03T10:38:04.319Z,18.13
2022-12-03T10:40:34.316Z,17.37
2022-12-03T10:43:14.719Z,17.13
2022-12-03T10:45:43.009Z,16.67
2022-12-03T10:48:15.423Z,16.07
2022-12-03T10:50:51.187Z,16.47
2022-12-03T10:53:21.749Z,18.33
2022-12-03T10:55:52.607Z,16.70
2022-12-03T10:58:23.277Z,16.90
2022-12-03T11:00:52.668Z,18.57
2022-12-03T11:03:22.639Z,17.67
2022-12-03T11:05:52.033Z,17.97
2022-12-03T11:08:23.142Z,18.03
2022-12-03T11:10:59.124Z,18.97
2022-12-03T11:13:46.589Z,19.73
2022-12-03T11:16:15.615Z,19.27
2022-12-03T11:19:00.271Z,18.17
2022-12-03T11:21:28.673Z,19.57
2022-12-03T11:24:20.611Z,19.00
2022-12-03T11:27:07.828Z,19.40
2022-12-03T11:29:51.157Z,19.53
2022-12-03T11:32:37.920Z,20.43
2022-12-03T11:35:06.382Z,20.13
2022-12-03T11:37:34.619Z,19.40
2022-12-03T11:40:27.322Z,20.03
2022-12-03T11:42:55.656Z,19.63
2022-12-03T11:45:35.560Z,19.90
2022-12-03T11:48:07.194Z,19.50
2022-12-03T11:50:39.687Z,20.13
2022-12-03T11:53:13.996Z,20.20
2022-12-03T11:55:46.788Z,20.47
2022-12-03T11:58:17.506Z,21.30
2022-12-03T12:00:51.298Z,20.73
2022-12-03T12:03:26.476Z,21.17
2022-12-03T12:06:04.578Z,20.83
2022-12-03T12:08:33.199Z,21.80
2022-12-03T12:11:01.559Z,21.50
2022-12-03T12:13:50.918Z,21.80
2022-12-03T12:16:52.235Z,21.77
2022-12-03T12:19:38.150Z,22.30
2022-12-03T12:22:16.302Z,22.43
2022-12-03T12:24:51.287Z,22.33
2022-12-03T12:27:20.635Z,23.67
2022-12-03T12:29:53.497Z,23.57
2022-12-03T12:32:24.241Z,23.47
2022-12-03T12:34:56.093Z,24.30
2022-12-03T12:37:25.155Z,24.03
2022-12-03T12:39:55.841Z,24.50
2022-12-03T12:42:31.656Z,24.90
2022-12-03T12:45:01.561Z,24.83
2022-12-03T12:47:32.718Z,25.03
2022-12-03T12:50:02.400Z,26.07
2022-12-03T12:52:30.733Z,24.67
2022-12-03T12:55:04.733Z,26.00
2022-12-03T12:57:35.591Z,26.63
2022-12-03T13:00:04.708Z,25.87
2022-12-03T13:02:41.036Z,25.87
2022-12-03T13:05:13.358Z,25.23
2022-12-03T13:07:43.054Z,25.93
2022-12-03T13:10:34.807Z,25.13
2022-12-03T13:13:14.483Z,25.37
2022-12-03T13:15:44.240Z,25.43
2022-12-03T13:18:20.963Z,25.13
2022-12-03T13:20:51.126Z,24.50
2022-12-03T13:23:27.092Z,26.63
2022-12-03T13:26:06.379Z,25.97
2022-12-03T13:28:37.659Z,25.67
2022-12-03T13:31:20.084Z,25.57
2022-12-03T13:33:48.427Z,24.93
2022-12-03T13:36:18.718Z,24.67
2022-12-03T13:38:47.231Z,25.00
2022-12-03T13:41:38.053Z,25.73
2022-12-03T13:44:17.643Z,26.00
2022-12-03T13:46:46.354Z,27.43
2022-12-03T13:49:25.435Z,25.93
2022-12-03T13:51:55.343Z,26.07
2022-12-03T13:54:24.562Z,26.40
2022-12-03T13:56:52.865Z,26.07
2022-12-03T13:59:26.011Z,26.83
2022-12-03T14:01:54.715Z,26.10
2022-12-03T14:04:23.112Z,26.77
2022-12-03T14:06:51.405Z,26.47
2022-12-03T14:09:21.050Z,26.60
2022-12-03T14:12:06.878Z,27.07
2022-12-03T14:14:35.257Z,26.47
2022-12-03T14:17:04.535Z,27.50
2022-12-03T14:19:32.832Z,26.40
2022-12-03T14:22:01.320Z,26.33
2022-12-03T14:24:31.119Z,26.13
2022-12-03T14:26:59.497Z,27.27
2022-12-03T14:29:27.865Z,27.33
2022-12-03T14:31:56.245Z,25.50
2022-12-03T14:34:24.736Z,26.63
2022-12-03T14:36:53.078Z,25.57
2022-12-03T14:39:21.557Z,26.00
2022-12-03T14:42:09.143Z,26.57
2022-12-03T14:44:37.470Z,25.73
2022-12-03T14:47:05.844Z,25.80
2022-12-03T14:49:34.219Z,25.40
2022-12-03T14:52:02.838Z,26.70
2022-12-03T14:54:31.182Z,26.73
2022-12-03T14:57:00.998Z,25.50
2022-12-03T14:59:29.444Z,26.07
2022-12-03T15:01:57.914Z,25.87
2022-12-03T15:04:26.376Z,25.97
2022-12-03T15:06:54.808Z,26.20
2022-12-03T15:09:23.327Z,26.87
2022-12-03T15:11:51.711Z,28.03
2022-12-03T15:14:21.447Z,26.43
2022-12-03T15:16:49.926Z,26.47
2022-12-03T15:19:18.591Z,26.50
2022-12-03T15:21:46.893Z,26.70
2022-12-03T15:24:15.276Z,26.30
2022-12-03T15:26:43.710Z,27.13
2022-12-03T15:29:12.052Z,26.60
2022-12-03T15:31:41.780Z,25.10
2022-12-03T15:34:10.219Z,26.73
2022-12-03T15:36:38.518Z,27.47
2022-12-03T15:39:06.841Z,27.33
2022-12-03T15:41:35.206Z,27.67
2022-12-03T15:44:03.664Z,27.70
2022-12-03T15:46:32.429Z,25.17
2022-12-03T15:49:02.293Z,26.03
2022-12-03T15:51:30.674Z,26.30
2022-12-03T15:53:58.953Z,30.30
2022-12-03T15:56:27.434Z,26.67
2022-12-03T15:58:55.986Z,27.70
2022-12-03T16:01:24.416Z,27.67
2022-12-03T16:03:52.887Z,31.23
2022-12-03T16:06:22.590Z,34.47
2022-12-03T16:08:51.012Z,28.73
2022-12-03T16:11:19.323Z,28.60
2022-12-03T16:13:47.675Z,32.22
2022-12-03T16:16:16.080Z,28.67
2022-12-03T16:18:44.646Z,32.97
2022-12-03T16:21:13.160Z,29.17
2022-12-03T16:23:42.968Z,28.27
2022-12-03T16:26:11.326Z,29.23
2022-12-03T16:28:39.780Z,28.90
2022-12-03T16:31:08.461Z,28.20
2022-12-03T16:33:36.999Z,68.67
2022-12-03T16:36:06.213Z,29.43
2022-12-03T16:38:34.659Z,29.57
2022-12-03T16:41:04.351Z,30.70
2022-12-03T16:43:35.346Z,27.80
2022-12-03T16:46:20.458Z,28.43
2022-12-03T16:48:49.127Z,28.70
2022-12-03T16:51:19.358Z,28.50
2022-12-03T16:53:48.284Z,27.67
2022-12-03T16:56:18.595Z,28.33
2022-12-03T16:58:47.018Z,29.03
2022-12-03T17:01:15.447Z,27.77
2022-12-03T17:03:43.814Z,28.33
2022-12-03T17:06:12.193Z,30.53
2022-12-03T17:08:45.836Z,28.83
2022-12-03T17:11:18.798Z,29.70
2022-12-03T17:13:47.340Z,29.37
2022-12-03T17:16:15.667Z,29.17
2022-12-03T17:18:44.144Z,30.23
2022-12-03T17:21:12.472Z,30.10
2022-12-03T17:23:40.811Z,28.27
2022-12-03T17:26:09.070Z,29.93
2022-12-03T17:28:38.688Z,32.13
2022-12-03T17:31:07.109Z,30.90
2022-12-03T17:33:35.420Z,30.07
2022-12-03T17:36:03.821Z,31.07
2022-12-03T17:38:37.286Z,30.20
2022-12-03T17:41:10.391Z,30.50
2022-12-03T17:43:40.005Z,30.63
2022-12-03T17:46:08.601Z,30.17
2022-12-03T17:48:37.267Z,31.30
2022-12-03T17:51:05.590Z,29.63
2022-12-03T17:53:33.812Z,31.10
2022-12-03T17:56:02.081Z,31.47
2022-12-03T17:58:30.656Z,30.73
2022-12-03T18:01:02.870Z,31.70
2022-12-03T18:03:31.935Z,30.73
2022-12-03T18:06:00.448Z,30.97
2022-12-03T18:08:28.632Z,30.23
2022-12-03T18:10:57.053Z,32.63
2022-12-03T18:13:25.379Z,29.77
2022-12-03T18:15:53.680Z,30.33
2022-12-03T18:18:23.316Z,31.13
2022-12-03T18:20:51.634Z,30.83
2022-12-03T18:23:19.976Z,31.90
2022-12-03T18:25:48.266Z,30.87
2022-12-03T18:28:16.520Z,30.20
2022-12-03T18:30:50.661Z,32.13
2022-12-03T18:33:21.314Z,30.73
2022-12-03T18:35:53.751Z,31.20
2022-12-03T18:38:22.803Z,30.13
2022-12-03T18:40:52.617Z,32.00
2022-12-03T18:43:20.914Z,28.90
2022-12-03T18:45:49.316Z,30.00
2022-12-03T18:48:18.440Z,31.07
2022-12-03T18:50:47.692Z,31.17
2022-12-03T18:53:19.760Z,31.40
2022-12-03T18:55:48.630Z,30.67
2022-12-03T18:58:16.898Z,31.07
2022-12-03T19:00:45.252Z,30.63
2022-12-03T19:03:13.573Z,31.63
2022-12-03T19:05:42.141Z,31.17
2022-12-03T19:08:14.601Z,31.70
2022-12-03T19:10:44.971Z,30.97
2022-12-03T19:13:13.417Z,31.33
2022-12-03T19:15:42.089Z,31.97
2022-12-03T19:18:10.365Z,31.87
2022-12-03T19:20:41.435Z,32.40
2022-12-03T19:23:09.660Z,32.60
2022-12-03T19:25:37.963Z,35.57
2022-12-03T19:28:07.924Z,31.80
2022-12-03T19:30:36.210Z,31.10
2022-12-03T19:33:04.549Z,32.00
2022-12-03T19:35:33.529Z,31.93
2022-12-03T19:38:01.785Z,31.57
2022-12-03T19:40:32.007Z,31.03
2022-12-03T19:43:00.251Z,31.63
2022-12-03T19:45:29.986Z,30.60
2022-12-03T19:47:58.230Z,31.57
2022-12-03T19:50:26.479Z,32.30
2022-12-03T19:52:54.793Z,32.23
2022-12-03T19:55:23.211Z,32.10
2022-12-03T19:57:51.500Z,31.90
2022-12-03T20:00:20.063Z,31.97
2022-12-03T20:02:51.207Z,31.93
2022-12-03T20:05:19.620Z,32.73
2022-12-03T20:07:47.936Z,32.23
2022-12-03T20:10:16.175Z,32.40
2022-12-03T20:12:44.445Z,31.07
2022-12-03T20:15:13.511Z,33.57
2022-12-03T20:17:41.802Z,32.20
2022-12-03T20:20:12.095Z,32.57
2022-12-03T20:22:40.393Z,33.10
2022-12-03T20:25:09.040Z,31.50
2022-12-03T20:27:37.402Z,32.93
2022-12-03T20:30:05.987Z,32.93
2022-12-03T20:32:34.240Z,33.20
2022-12-03T20:35:03.328Z,33.67
2022-12-03T20:37:34.045Z,33.73
2022-12-03T20:40:02.396Z,33.53
2022-12-03T20:42:32.803Z,33.90
2022-12-03T20:45:01.115Z,33.53
2022-12-03T20:47:30.496Z,31.73
2022-12-03T20:50:00.471Z,32.13
2022-12-03T20:52:28.804Z,32.57
2022-12-03T20:54:58.460Z,34.67
2022-12-03T20:57:26.704Z,32.67
2022-12-03T20:59:56.269Z,34.40
2022-12-03T21:02:24.677Z,31.97
2022-12-03T21:04:52.978Z,32.83
2022-12-03T21:07:21.254Z,34.13
2022-12-03T21:09:49.749Z,33.07
2022-12-03T21:12:19.409Z,31.70
2022-12-03T21:14:47.710Z,31.43
2022-12-03T21:17:16.021Z,34.10
2022-12-03T21:19:44.340Z,33.93
2022-12-03T21:22:12.606Z,32.10
2022-12-03T21:24:42.693Z,33.67
2022-12-03T21:27:10.908Z,34.67
2022-12-03T21:29:40.649Z,33.97
2022-12-03T21:32:08.855Z,33.37
2022-12-03T21:34:38.396Z,34.20
2022-12-03T21:37:09.860Z,33.77
2022-12-03T21:39:38.180Z,34.50
2022-12-03T21:42:22.171Z,33.60
2022-12-03T21:44:56.220Z,33.93
2022-12-03T21:47:24.535Z,34.50
2022-12-03T21:49:53.080Z,34.47
2022-12-03T21:52:21.582Z,33.43
2022-12-03T21:54:49.911Z,33.33
2022-12-03T21:57:18.148Z,33.20
2022-12-03T21:59:46.456Z,33.17
2022-12-03T22:02:16.163Z,33.33
2022-12-03T22:04:44.655Z,34.13
2022-12-03T22:07:12.898Z,32.93
2022-12-03T22:09:41.099Z,34.37
2022-12-03T22:12:09.459Z,33.23
2022-12-03T22:14:37.680Z,33.40
2022-12-03T22:17:05.941Z,33.80
2022-12-03T22:19:35.605Z,33.70
2022-12-03T22:22:03.856Z,34.20
2022-12-03T22:24:32.210Z,34.23
2022-12-03T22:27:00.464Z,33.97
2022-12-03T22:29:28.666Z,33.90
2022-12-03T22:31:56.920Z,33.97
2022-12-03T22:34:25.389Z,32.40
2022-12-03T22:36:55.001Z,33.03
2022-12-03T22:39:23.233Z,33.10
2022-12-03T22:41:51.519Z,33.60
2022-12-03T22:44:19.745Z,33.37
2022-12-03T22:46:48.007Z,33.17
2022-12-03T22:49:16.376Z,35.50
2022-12-03T22:51:46.759Z,33.67
2022-12-03T22:54:19.383Z,34.63
2022-12-03T22:56:51.813Z,33.67
2022-12-03T22:59:20.205Z,32.90
2022-12-03T23:01:48.481Z,31.40
2022-12-03T23:04:16.728Z,32.83
2022-12-03T23:06:45.071Z,33.77
2022-12-03T23:09:13.440Z,33.47
2022-12-03T23:11:45.128Z,32.17
2022-12-03T23:14:13.462Z,34.90
2022-12-03T23:16:42.080Z,34.47
2022-12-03T23:19:10.451Z,31.97
2022-12-03T23:21:38.868Z,32.50
2022-12-03T23:24:07.802Z,33.70
2022-12-03T23:26:37.003Z,31.83
2022-12-03T23:29:08.752Z,34.10
2022-12-03T23:31:37.273Z,34.17
2022-12-03T23:34:05.869Z,34.33
2022-12-03T23:36:34.873Z,34.07
2022-12-03T23:39:03.389Z,33.50
2022-12-03T23:41:31.700Z,33.80
2022-12-03T23:44:00.022Z,33.13
2022-12-03T23:46:29.847Z,31.70
2022-12-03T23:48:59.691Z,33.83
2022-12-03T23:51:28.343Z,33.67
2022-12-03T23:53:56.864Z,33.63
2022-12-03T23:56:26.048Z,32.23
2022-12-03T23:58:54.375Z,32.17
